createdAt,value
2022-08-17T00:04:29.246Z,17.60
2022-08-17T00:09:51.146Z,21.70
2022-08-17T00:14:59.876Z,18.10
2022-08-17T00:20:15.384Z,17.50
2022-08-17T00:25:56.000Z,17.90
2022-08-17T00:31:05.171Z,19.80
2022-08-17T00:36:12.929Z,19.10
2022-08-17T00:41:36.890Z,15.90
2022-08-17T00:46:49.490Z,17.60
2022-08-17T00:52:12.828Z,21.40
2022-08-17T00:57:54.649Z,18.20
2022-08-17T01:03:35.954Z,15.80
2022-08-17T01:09:01.886Z,17.80
2022-08-17T01:14:21.612Z,17.00
2022-08-17T01:19:47.634Z,19.30
2022-08-17T01:25:00.000Z,19.40
2022-08-17T01:30:58.970Z,16.40
2022-08-17T01:35:53.590Z,19.60
2022-08-17T01:41:12.707Z,17.30
2022-08-17T01:46:27.275Z,17.20
2022-08-17T01:51:35.534Z,20.90
2022-08-17T01:57:03.948Z,19.90
2022-08-17T02:02:13.011Z,19.80
2022-08-17T02:07:42.338Z,18.80
2022-08-17T02:13:09.843Z,18.00
2022-08-17T02:18:23.026Z,19.20
2022-08-17T02:23:41.479Z,18.80
2022-08-17T02:28:47.832Z,19.60
2022-08-17T02:34:04.093Z,17.10
2022-08-17T02:39:19.429Z,21.00
2022-08-17T02:44:44.511Z,19.00
2022-08-17T02:50:01.566Z,18.50
2022-08-17T02:55:09.423Z,20.00
2022-08-17T03:00:23.344Z,17.60
2022-08-17T03:05:45.423Z,22.40
2022-08-17T03:10:51.355Z,19.20
2022-08-17T03:15:57.188Z,20.60
2022-08-17T03:21:05.210Z,19.20
2022-08-17T03:26:23.763Z,20.40
2022-08-17T03:31:36.910Z,18.00
2022-08-17T03:36:43.122Z,18.40
2022-08-17T03:41:49.295Z,18.50
2022-08-17T03:47:14.341Z,16.80
2022-08-17T03:52:51.897Z,18.50
2022-08-17T03:57:59.185Z,19.10
2022-08-17T04:03:03.881Z,20.90
2022-08-17T04:08:11.073Z,17.60
2022-08-17T04:13:14.895Z,18.40
2022-08-17T04:18:23.181Z,23.00
2022-08-17T04:23:55.907Z,17.30
2022-08-17T04:28:59.794Z,16.00
2022-08-17T04:34:03.299Z,18.10
2022-08-17T04:39:06.552Z,17.40
2022-08-17T04:44:09.739Z,20.70
2022-08-17T04:49:13.067Z,19.30
2022-08-17T04:54:20.437Z,17.90
2022-08-17T04:59:23.609Z,17.80
2022-08-17T05:04:34.457Z,17.20
2022-08-17T05:09:38.672Z,17.80
2022-08-17T05:14:42.188Z,18.20
2022-08-17T05:19:49.990Z,17.10
2022-08-17T05:24:57.986Z,17.90
2022-08-17T05:30:01.074Z,19.40
2022-08-17T05:35:06.359Z,15.40
2022-08-17T05:40:10.817Z,18.90
2022-08-17T05:45:54.206Z,20.40
2022-08-17T05:51:10.138Z,15.40
2022-08-17T05:56:34.079Z,15.70
2022-08-17T06:01:52.717Z,15.30
2022-08-17T06:07:05.236Z,16.70
2022-08-17T06:12:24.522Z,15.10
2022-08-17T06:17:29.711Z,20.50
2022-08-17T06:22:58.254Z,18.10
2022-08-17T06:28:14.888Z,23.30
2022-08-17T06:33:26.392Z,16.00
2022-08-17T06:39:08.477Z,16.90
2022-08-17T06:44:42.189Z,17.80
2022-08-17T06:50:09.393Z,17.00
2022-08-17T06:55:45.334Z,14.60
2022-08-17T07:00:54.222Z,18.80
2022-08-17T07:06:18.364Z,17.20
2022-08-17T07:11:36.809Z,17.30
2022-08-17T07:16:47.337Z,16.60
2022-08-17T07:22:09.250Z,20.90
2022-08-17T07:27:28.909Z,17.50
2022-08-17T07:32:49.378Z,17.00
2022-08-17T07:38:25.108Z,19.00
2022-08-17T07:43:41.204Z,15.30
2022-08-17T07:48:49.926Z,17.20
2022-08-17T07:54:13.629Z,15.60
2022-08-17T07:59:24.166Z,15.80
2022-08-17T08:10:05.972Z,14.10
2022-08-17T08:15:35.179Z,17.60
2022-08-17T08:21:05.360Z,14.30
2022-08-17T08:26:47.144Z,12.50
2022-08-17T08:32:51.155Z,15.60
2022-08-17T08:38:08.243Z,15.90
2022-08-17T08:44:03.950Z,11.20
2022-08-17T08:50:02.865Z,15.80
2022-08-17T08:55:23.568Z,14.50
2022-08-17T09:00:36.066Z,12.70
2022-08-17T09:06:37.366Z,11.20
2022-08-17T09:12:10.829Z,11.90
2022-08-17T09:17:32.785Z,14.40
2022-08-17T09:22:44.770Z,17.20
2022-08-17T09:28:05.299Z,12.70
2022-08-17T09:33:15.886Z,14.60
2022-08-17T09:38:55.550Z,13.70
2022-08-17T09:44:07.690Z,13.00
2022-08-17T09:49:28.904Z,10.70
2022-08-17T09:54:39.701Z,12.20
2022-08-17T10:00:13.788Z,11.10
2022-08-17T10:05:57.110Z,9.30
2022-08-17T10:11:20.035Z,9.40
2022-08-17T10:16:39.008Z,11.30
2022-08-17T10:22:14.564Z,10.70
2022-08-17T10:28:01.391Z,9.90
2022-08-17T10:33:20.588Z,9.00
2022-08-17T10:38:39.444Z,13.80
2022-08-17T10:44:37.252Z,12.20
2022-08-17T10:49:38.838Z,12.10
2022-08-17T10:54:51.898Z,13.00
2022-08-17T11:07:25.979Z,9.00
2022-08-17T11:12:55.889Z,8.90
2022-08-17T11:18:51.008Z,9.50
2022-08-17T11:24:17.830Z,9.20
2022-08-17T11:29:56.763Z,10.50
2022-08-17T11:35:22.205Z,11.10
2022-08-17T11:41:00.647Z,11.10
2022-08-17T11:47:07.050Z,11.90
2022-08-17T11:52:35.048Z,11.60
2022-08-17T11:57:41.196Z,10.90
2022-08-17T12:02:48.493Z,9.20
2022-08-17T12:08:22.036Z,9.50
2022-08-17T12:13:38.714Z,10.10
2022-08-17T12:18:58.646Z,8.90
2022-08-17T12:24:23.355Z,8.60
2022-08-17T12:35:05.344Z,13.10
2022-08-17T12:40:31.694Z,11.20
2022-08-17T12:45:39.901Z,9.20
2022-08-17T12:50:46.301Z,12.80
2022-08-17T12:55:51.715Z,10.20
2022-08-17T13:01:13.906Z,8.60
2022-08-17T13:06:51.932Z,9.00
2022-08-17T13:12:03.301Z,10.70
2022-08-17T13:17:13.460Z,10.40
2022-08-17T13:22:22.986Z,9.50
2022-08-17T13:27:28.706Z,9.30
2022-08-17T13:32:40.457Z,10.40
2022-08-17T13:38:05.542Z,9.40
2022-08-17T13:43:11.098Z,14.80
2022-08-17T13:54:02.886Z,8.70
2022-08-17T13:59:12.868Z,9.70
2022-08-17T14:04:21.675Z,10.70
2022-08-17T14:09:37.540Z,10.00
2022-08-17T14:14:42.756Z,8.70
2022-08-17T14:19:45.919Z,11.70
2022-08-17T14:24:49.075Z,10.10
2022-08-17T14:29:53.379Z,9.50
2022-08-17T14:34:57.950Z,11.30
2022-08-17T14:40:06.835Z,9.10
2022-08-17T14:45:31.495Z,13.30
2022-08-17T14:50:42.403Z,10.00
2022-08-17T14:55:47.315Z,8.70
2022-08-17T15:00:51.812Z,12.20
2022-08-17T15:05:55.516Z,9.10
2022-08-17T15:11:03.554Z,11.30
2022-08-17T15:16:13.893Z,9.30
2022-08-17T15:21:18.353Z,14.00
2022-08-17T15:26:25.690Z,13.60
2022-08-17T15:31:32.313Z,11.40
2022-08-17T15:36:37.337Z,11.00
2022-08-17T15:41:42.381Z,10.40
2022-08-17T15:46:45.520Z,14.60
2022-08-17T15:51:49.728Z,14.80
2022-08-17T15:56:53.019Z,11.70
2022-08-17T16:03:14.922Z,13.90
2022-08-17T16:07:26.571Z,10.70
2022-08-17T16:12:30.058Z,13.70
2022-08-17T16:17:40.206Z,11.10
2022-08-17T16:22:46.352Z,10.40
2022-08-17T16:27:53.696Z,11.60
2022-08-17T16:33:00.036Z,10.20
2022-08-17T16:38:07.392Z,14.30
2022-08-17T16:43:14.368Z,11.60
2022-08-17T16:48:18.657Z,10.50
2022-08-17T16:53:21.840Z,12.40
2022-08-17T16:58:25.098Z,13.20
2022-08-17T17:03:33.160Z,14.20
2022-08-17T17:09:04.706Z,14.00
2022-08-17T17:14:21.201Z,15.70
2022-08-17T17:19:45.698Z,11.20
2022-08-17T17:25:13.942Z,12.80
2022-08-17T17:30:24.345Z,11.70
2022-08-17T17:36:30.041Z,11.20
2022-08-17T17:41:58.998Z,13.00
2022-08-17T17:47:04.518Z,14.40
2022-08-17T17:52:36.495Z,10.50
2022-08-17T17:58:18.418Z,12.70
2022-08-17T18:04:05.328Z,11.90
2022-08-17T18:16:43.008Z,12.40
2022-08-17T18:22:00.951Z,16.00
2022-08-17T18:41:30.540Z,17.50
2022-08-17T18:47:39.558Z,14.80
2022-08-17T18:52:44.472Z,14.60
2022-08-17T18:57:59.305Z,13.40
2022-08-17T19:03:17.953Z,20.10
2022-08-17T19:08:37.829Z,17.20
2022-08-17T19:24:35.296Z,17.40
2022-08-17T19:30:08.343Z,14.30
2022-08-17T19:35:20.421Z,13.00
2022-08-17T19:41:05.065Z,16.40
2022-08-17T19:46:35.864Z,21.00
2022-08-17T19:52:00.416Z,16.40
2022-08-17T19:57:18.564Z,45.60
2022-08-17T20:03:07.155Z,28.00
2022-08-17T20:08:34.684Z,25.40
2022-08-17T20:13:56.045Z,16.00
2022-08-17T20:19:12.929Z,18.10
2022-08-17T20:24:34.857Z,15.10
2022-08-17T20:30:21.469Z,14.60
2022-08-17T20:35:33.388Z,17.10
2022-08-17T20:41:04.846Z,18.00
2022-08-17T20:46:34.651Z,20.50
2022-08-17T20:52:19.796Z,18.50
2022-08-17T20:57:38.216Z,17.10
2022-08-17T21:02:49.764Z,16.50
2022-08-17T21:08:03.925Z,20.00
2022-08-17T21:13:18.496Z,21.20
2022-08-17T21:19:10.359Z,17.20
2022-08-17T21:24:53.692Z,20.30
2022-08-17T21:30:48.369Z,16.10
2022-08-17T21:36:15.792Z,20.90
2022-08-17T21:41:48.000Z,18.40
2022-08-17T21:47:13.534Z,16.80
2022-08-17T21:52:34.146Z,16.70
2022-08-17T21:57:52.963Z,19.00
2022-08-17T22:03:31.477Z,16.90
2022-08-17T22:08:48.923Z,15.90
2022-08-17T22:14:05.874Z,15.50
2022-08-17T22:19:17.891Z,17.80
2022-08-17T22:24:31.139Z,16.40
2022-08-17T22:30:46.160Z,17.20
2022-08-17T22:36:43.580Z,20.80
2022-08-17T22:42:12.410Z,19.60
2022-08-17T22:47:48.967Z,20.00
2022-08-17T22:54:03.964Z,16.60
2022-08-17T22:59:55.707Z,14.30
2022-08-17T23:05:32.261Z,14.30
2022-08-17T23:10:43.305Z,15.30
2022-08-17T23:15:51.510Z,14.80
2022-08-17T23:21:07.432Z,15.30
2022-08-17T23:26:55.560Z,15.80
2022-08-17T23:32:04.914Z,16.30
2022-08-17T23:37:40.477Z,17.30
2022-08-17T23:43:17.451Z,19.40
2022-08-17T23:48:44.466Z,13.80
2022-08-17T23:54:08.353Z,18.90
2022-08-17T23:59:23.709Z,18.50
